Time;durP1;ratioP1;P1;durP2;ratioP2;P2;SDS_P1;SDS_P2;PMS_P1;PMS_P2;Temp;Humidity;BMP_temperature;BMP_pressure;BME280_temperature;BME280_humidity;BME280_pressure;Samples;Min_cycle;Max_cycle;Signal;HPM_P1;HPM_P2
2022/11/29 00:01:34;;;;;;;;;;;25.80;53.40;;;;;;4109394;28;20070;-52
2022/11/29 00:03:58;;;;;;;0.40;0.15;;;25.80;53.30;;;;;;4113640;28;19928;-44
2022/11/29 00:06:23;;;;;;;1.35;0.40;;;25.80;53.20;;;;;;4107621;28;20046;-49
2022/11/29 00:08:46;;;;;;;1.45;0.30;;;25.90;53.10;;;;;;4117124;28;20034;-51
2022/11/29 00:12:10;;;;;;;0.45;0.22;;;25.90;52.90;;;;;;4116788;28;20413;-49
2022/11/29 00:13:56;;;;;;;0.50;0.30;;;25.90;52.90;;;;;;4112050;28;20046;-50
2022/11/29 00:16:18;;;;;;;0.57;0.50;;;25.90;52.80;;;;;;4115884;28;20556;-51
2022/11/29 00:18:41;;;;;;;0.30;0.30;;;26.00;52.60;;;;;;4114404;28;20826;-50
2022/11/29 00:21:08;;;;;;;0.57;0.22;;;26.00;52.50;;;;;;4116021;28;20476;-53
2022/11/29 00:23:30;;;;;;;0.60;0.30;;;26.00;52.40;;;;;;4116272;28;20565;-51
2022/11/29 00:25:53;;;;;;;1.45;0.68;;;26.10;52.40;;;;;;4114437;28;20132;-49
2022/11/29 00:28:15;;;;;;;0.82;0.43;;;26.10;52.30;;;;;;4116466;28;20644;-49
2022/11/29 00:30:38;;;;;;;1.23;0.40;;;26.10;52.30;;;;;;4098532;28;20034;-51
2022/11/29 00:33:01;;;;;;;0.25;0.25;;;26.10;52.10;;;;;;4118332;28;20651;-57
2022/11/29 00:35:24;;;;;;;1.90;0.30;;;26.10;52.10;;;;;;4098288;28;20530;-57
2022/11/29 00:37:46;;;;;;;0.47;0.32;;;26.20;52.20;;;;;;4114399;28;20042;-57
2022/11/29 00:40:09;;;;;;;0.82;0.40;;;26.20;52.10;;;;;;4113922;28;20496;-53
2022/11/29 00:42:32;;;;;;;0.20;0.20;;;26.20;52.20;;;;;;4115280;28;20077;-51
2022/11/29 00:44:54;;;;;;;1.02;0.30;;;26.20;52.10;;;;;;4113320;28;20133;-51
2022/11/29 00:47:17;;;;;;;1.65;0.40;;;26.20;52.10;;;;;;4115597;28;20038;-50
2022/11/29 00:49:40;;;;;;;0.80;0.30;;;26.20;51.90;;;;;;4113615;28;20046;-48
2022/11/29 00:52:03;;;;;;;0.38;0.30;;;26.20;51.80;;;;;;4111492;28;20118;-48
2022/11/29 00:54:26;;;;;;;0.70;0.30;;;26.20;51.80;;;;;;4110239;28;20043;-54
2022/11/29 00:56:48;;;;;;;1.45;0.30;;;26.20;52.20;;;;;;4114663;28;20105;-48
2022/11/29 00:59:11;;;;;;;0.55;0.30;;;26.20;51.60;;;;;;4108811;28;20161;-53
2022/11/29 01:01:33;;;;;;;1.10;0.40;;;26.30;51.50;;;;;;4108613;28;21325;-44
2022/11/29 01:03:56;;;;;;;0.25;0.25;;;26.30;51.60;;;;;;4111826;28;20045;-53
2022/11/29 01:06:19;;;;;;;2.47;0.20;;;26.30;51.60;;;;;;4109406;28;20042;-56
2022/11/29 01:08:44;;;;;;;0.97;0.40;;;26.30;51.50;;;;;;4115869;28;20569;-50
2022/11/29 01:11:08;;;;;;;0.88;0.32;;;26.40;51.40;;;;;;4114591;28;20298;-48
2022/11/29 01:13:31;;;;;;;1.75;0.45;;;26.40;51.30;;;;;;4113350;28;20054;-56
2022/11/29 01:15:57;;;;;;;0.32;0.20;;;26.40;51.20;;;;;;4116816;28;20796;-50
2022/11/29 01:18:20;;;;;;;0.40;0.32;;;26.40;50.90;;;;;;4113668;28;20621;-54
2022/11/29 01:20:42;;;;;;;0.35;0.20;;;26.40;50.90;;;;;;4101017;28;20557;-50
2022/11/29 01:23:05;;;;;;;0.40;0.40;;;26.40;50.90;;;;;;4115805;28;20112;-47
2022/11/29 01:25:28;;;;;;;1.40;0.30;;;26.40;50.80;;;;;;4110397;28;20057;-49
2022/11/29 01:27:50;;;;;;;1.40;0.40;;;26.40;50.80;;;;;;4115477;28;20117;-53
2022/11/29 01:30:14;;;;;;;2.15;0.50;;;26.40;50.60;;;;;;4115568;28;20093;-47
2022/11/29 01:32:37;;;;;;;1.23;0.32;;;26.40;50.60;;;;;;4114789;28;20117;-44
2022/11/29 01:35:00;;;;;;;0.55;0.20;;;26.50;50.50;;;;;;4115213;28;20074;-52
2022/11/29 01:37:22;;;;;;;1.08;0.30;;;26.50;50.40;;;;;;4113279;28;20517;-49
2022/11/29 01:39:45;;;;;;;3.33;0.50;;;26.50;50.40;;;;;;4113382;28;20414;-47
2022/11/29 01:42:13;;;;;;;9.10;0.60;;;26.50;50.30;;;;;;4115366;28;20054;-54
2022/11/29 01:44:36;;;;;;;1.27;0.30;;;26.50;50.20;;;;;;4114778;28;20058;-52
2022/11/29 01:46:58;;;;;;;4.78;0.40;;;26.50;50.30;;;;;;4113839;28;20035;-49
2022/11/29 01:49:32;;;;;;;1.35;0.40;;;26.50;49.00;;;;;;4115994;28;20818;-53
2022/11/29 01:52:03;;;;;;;0.73;0.43;;;26.50;46.00;;;;;;4114257;28;20452;-47
2022/11/29 01:54:26;;;;;;;2.00;0.40;;;26.40;45.50;;;;;;4111241;28;20023;-48
2022/11/29 01:56:51;;;;;;;1.15;0.40;;;26.40;45.20;;;;;;4109630;28;20050;-53
2022/11/29 01:59:18;;;;;;;6.00;0.85;;;26.30;45.30;;;;;;4111931;28;20042;-45
2022/11/29 02:01:41;;;;;;;1.10;0.30;;;26.30;45.20;;;;;;4111941;28;20232;-44
2022/11/29 02:04:04;;;;;;;0.98;0.30;;;26.30;45.20;;;;;;4113816;28;20130;-45
2022/11/29 02:06:27;;;;;;;;;;;26.20;44.70;;;;;;4114923;28;20057;-47
2022/11/29 02:08:50;;;;;;;0.30;0.20;;;26.20;44.70;;;;;;4106635;28;19914;-46
2022/11/29 02:11:39;;;;;;;0.38;0.20;;;26.20;44.40;;;;;;4113317;28;20042;-50
2022/11/29 02:14:25;;;;;;;0.60;0.30;;;26.20;45.40;;;;;;4109446;28;20494;-47
2022/11/29 02:17:08;;;;;;;0.80;0.50;;;26.20;45.70;;;;;;4114922;28;20038;-47
2022/11/29 02:19:51;;;;;;;0.38;0.30;;;26.10;45.30;;;;;;4113193;28;20042;-47
2022/11/29 02:22:53;;;;;;;10.90;0.63;;;26.10;44.80;;;;;;4115900;28;20100;-49
2022/11/29 02:25:39;;;;;;;0.20;0.20;;;26.00;45.10;;;;;;4102240;28;20081;-51
2022/11/29 02:28:17;;;;;;;1.25;0.38;;;26.00;44.50;;;;;;4114928;28;20354;-46
2022/11/29 02:30:51;;;;;;;0.30;0.30;;;25.90;43.90;;;;;;4112691;28;20294;-46
2022/11/29 02:33:48;;;;;;;0.73;0.38;;;25.90;44.10;;;;;;4112385;28;20487;-47
2022/11/29 02:36:39;;;;;;;0.80;0.30;;;25.90;44.10;;;;;;4111285;28;20557;-45
2022/11/29 02:39:13;;;;;;;0.32;0.30;;;25.80;43.90;;;;;;4116398;28;20431;-49
2022/11/29 02:42:13;;;;;;;1.35;0.40;;;25.80;44.20;;;;;;4114945;28;20038;-47
2022/11/29 02:45:02;;;;;;;0.60;0.50;;;25.80;44.30;;;;;;4108697;28;20453;-49
2022/11/29 02:47:42;;;;;;;2.28;0.55;;;25.70;44.40;;;;;;4115060;28;20042;-48
2022/11/29 02:50:17;;;;;;;0.75;0.32;;;25.70;44.50;;;;;;4113906;28;20034;-46
2022/11/29 02:52:52;;;;;;;0.38;0.30;;;25.70;44.20;;;;;;4114218;28;20065;-49
2022/11/29 02:55:51;;;;;;;0.55;0.32;;;25.70;44.20;;;;;;4102360;28;20913;-48
2022/11/29 02:58:31;;;;;;;0.22;0.22;;;25.70;44.40;;;;;;4114271;28;20038;-47
2022/11/29 03:01:12;;;;;;;1.27;0.57;;;25.60;44.30;;;;;;4111615;28;20407;-51
2022/11/29 03:03:44;;;;;;;0.47;0.30;;;25.60;44.10;;;;;;4116230;28;20501;-46
2022/11/29 03:06:28;;;;;;;0.82;0.50;;;25.60;44.00;;;;;;4115381;28;20121;-52
2022/11/29 03:08:56;;;;;;;1.03;0.47;;;25.60;44.40;;;;;;4114949;28;20041;-50
2022/11/29 03:11:41;;;;;;;1.15;0.60;;;25.60;44.50;;;;;;4118740;28;20093;-48
2022/11/29 03:14:16;;;;;;;0.45;0.30;;;25.60;44.40;;;;;;4116953;28;20125;-47
2022/11/29 03:16:50;;;;;;;0.40;0.32;;;25.50;44.30;;;;;;4115747;28;20077;-45
2022/11/29 03:19:39;;;;;;;2.03;0.63;;;25.50;44.40;;;;;;4115818;28;20450;-52
2022/11/29 03:22:18;;;;;;;0.70;0.40;;;25.50;44.70;;;;;;4115166;28;20283;-47
2022/11/29 03:25:07;;;;;;;0.52;0.38;;;25.50;44.50;;;;;;4117417;28;20049;-47
2022/11/29 03:27:45;;;;;;;0.65;0.40;;;25.50;44.80;;;;;;4117275;28;20101;-50
2022/11/29 03:30:16;;;;;;;2.17;0.32;;;25.50;44.70;;;;;;4115280;28;20547;-49
2022/11/29 03:32:44;;;;;;;0.47;0.40;;;25.50;44.80;;;;;;4116189;28;20173;-49
2022/11/29 03:35:10;;;;;;;0.40;0.40;;;25.50;44.80;;;;;;4116021;28;20045;-45
2022/11/29 03:37:47;;;;;;;2.97;0.52;;;25.50;44.80;;;;;;4114756;28;20042;-48
2022/11/29 03:40:21;;;;;;;0.35;0.30;;;25.40;45.10;;;;;;4113540;28;20462;-48
2022/11/29 03:43:08;;;;;;;0.30;0.30;;;25.50;45.20;;;;;;4112495;28;20394;-51
2022/11/29 03:45:36;;;;;;;0.88;0.60;;;25.40;45.40;;;;;;4116092;28;20473;-48
2022/11/29 03:48:34;;;;;;;1.98;0.50;;;25.40;45.60;;;;;;4111941;28;20039;-51
2022/11/29 03:51:17;;;;;;;4.45;0.80;;;25.50;46.60;;;;;;4111782;28;20047;-54
2022/11/29 03:54:03;;;;;;;2.90;0.65;;;25.50;47.70;;;;;;4113816;28;20478;-54
2022/11/29 03:56:39;;;;;;;0.80;0.55;;;25.60;48.50;;;;;;4110712;28;20243;-50
2022/11/29 03:59:12;;;;;;;3.88;0.50;;;25.70;48.60;;;;;;4113137;28;20080;-51
2022/11/29 04:02:03;;;;;;;2.05;0.68;;;25.80;48.80;;;;;;4112160;28;20120;-50
2022/11/29 04:05:02;;;;;;;1.23;0.38;;;25.80;49.00;;;;;;4116203;28;20096;-55
2022/11/29 04:07:40;;;;;;;0.77;0.52;;;25.90;49.00;;;;;;4106541;28;20073;-48
2022/11/29 04:10:32;;;;;;;1.30;0.50;;;26.10;49.00;;;;;;4107215;28;20034;-47
2022/11/29 04:13:13;;;;;;;0.28;0.28;;;26.10;49.60;;;;;;4109762;28;20038;-53
2022/11/29 04:16:17;;;;;;;4.50;0.75;;;26.20;49.00;;;;;;4104423;28;20075;-53
2022/11/29 04:19:05;;;;;;;2.63;0.50;;;26.20;48.70;;;;;;4105541;28;20042;-46
2022/11/29 04:21:35;;;;;;;3.50;0.45;;;26.30;48.70;;;;;;4106371;28;20511;-48
2022/11/29 04:24:24;;;;;;;2.08;0.40;;;26.40;48.80;;;;;;4092638;28;20046;-45
2022/11/29 04:26:59;;;;;;;0.68;0.40;;;26.40;48.70;;;;;;4101921;28;20062;-47
2022/11/29 04:29:40;;;;;;;0.30;0.20;;;26.50;48.60;;;;;;4104290;28;20714;-49
2022/11/29 04:32:21;;;;;;;0.40;0.30;;;26.50;48.60;;;;;;4108474;28;20478;-46
2022/11/29 04:35:08;;;;;;;0.57;0.40;;;26.60;48.60;;;;;;4107049;28;20446;-50
2022/11/29 04:38:17;;;;;;;2.40;0.17;;;26.70;48.60;;;;;;4105688;28;20083;-56
2022/11/29 04:41:00;;;;;;;5.18;0.47;;;26.70;48.50;;;;;;4092471;28;20034;-48
2022/11/29 04:43:29;;;;;;;1.77;0.40;;;26.80;48.60;;;;;;4106719;28;20054;-51
2022/11/29 04:46:17;;;;;;;3.30;0.88;;;26.90;48.60;;;;;;4104760;28;20170;-51
2022/11/29 04:49:06;;;;;;;2.95;0.40;;;27.00;48.60;;;;;;4107492;28;20489;-50
2022/11/29 04:51:29;;;;;;;1.65;0.20;;;27.10;48.70;;;;;;4106528;28;20041;-48
2022/11/29 04:53:54;;;;;;;1.08;0.30;;;27.10;48.60;;;;;;4108128;28;20494;-54
2022/11/29 04:57:06;;;;;;;1.05;0.50;;;27.20;48.50;;;;;;4097610;28;20058;-51
2022/11/29 04:59:57;;;;;;;1.90;0.40;;;27.20;48.40;;;;;;4108454;28;20304;-53
2022/11/29 05:02:46;;;;;;;1.27;0.35;;;27.30;48.40;;;;;;4105008;28;20038;-49
2022/11/29 05:05:26;;;;;;;1.10;0.45;;;27.30;48.50;;;;;;4106552;28;20050;-54
2022/11/29 05:08:22;;;;;;;1.05;0.60;;;27.40;48.50;;;;;;4104340;28;20034;-55
2022/11/29 05:11:10;;;;;;;1.30;0.57;;;27.50;48.40;;;;;;4106934;28;20046;-44
2022/11/29 05:13:48;;;;;;;4.50;0.57;;;27.50;48.50;;;;;;4075926;28;20031;-50
2022/11/29 05:16:28;;;;;;;1.17;0.40;;;27.60;48.20;;;;;;4102400;28;20421;-52
2022/11/29 05:19:27;;;;;;;5.68;0.75;;;27.60;48.20;;;;;;4108288;28;20497;-48
2022/11/29 05:22:20;;;;;;;2.47;0.63;;;27.70;48.60;;;;;;4107375;28;20038;-48
2022/11/29 05:25:21;;;;;;;1.30;0.63;;;27.70;48.50;;;;;;4099325;28;20054;-50
2022/11/29 05:27:46;;;;;;;9.45;1.30;;;27.80;48.40;;;;;;4105057;28;20546;-44
2022/11/29 05:30:12;;;;;;;10.00;1.70;;;27.90;48.40;;;;;;4106485;28;20042;-53
2022/11/29 05:33:16;;;;;;;8.02;2.10;;;27.90;48.60;;;;;;4109843;28;20485;-52
2022/11/29 05:36:10;;;;;;;4.60;1.63;;;28.00;48.80;;;;;;4091399;28;20053;-53
2022/11/29 05:38:35;;;;;;;8.15;2.72;;;28.10;48.90;;;;;;4107932;28;20070;-48
2022/11/29 05:41:21;;;;;;;12.55;2.97;;;28.10;48.90;;;;;;4103843;28;20053;-46
2022/11/29 05:43:55;;;;;;;8.13;2.40;;;28.10;49.00;;;;;;4107115;28;20065;-45
2022/11/29 05:46:35;;;;;;;7.85;2.72;;;28.10;48.90;;;;;;4104294;28;20054;-46
2022/11/29 05:49:35;;;;;;;8.05;2.72;;;28.10;49.00;;;;;;4107867;28;20124;-47
2022/11/29 05:52:34;;;;;;;8.18;2.75;;;28.10;49.00;;;;;;4084434;28;20120;-51
2022/11/29 05:55:21;;;;;;;8.18;3.00;;;28.10;49.10;;;;;;4107170;28;20794;-48
2022/11/29 05:57:52;;;;;;;8.02;2.78;;;28.10;49.30;;;;;;4114447;28;20393;-48
2022/11/29 06:00:17;;;;;;;9.55;2.85;;;28.10;49.20;;;;;;4100566;28;20030;-51
2022/11/29 06:02:50;;;;;;;8.27;2.50;;;28.10;49.00;;;;;;4114980;28;20038;-46
2022/11/29 06:05:37;;;;;;;6.18;2.60;;;28.10;49.10;;;;;;4113648;28;20050;-48
2022/11/29 06:08:38;;;;;;;7.10;2.85;;;28.10;49.20;;;;;;4110689;28;20057;-45
2022/11/29 06:11:10;;;;;;;10.25;2.42;;;28.10;49.80;;;;;;4117629;28;20034;-50
2022/11/29 06:13:49;;;;;;;8.80;2.40;;;28.10;49.10;;;;;;4109885;28;20045;-47
2022/11/29 06:16:39;;;;;;;6.93;2.58;;;28.10;49.20;;;;;;4112835;28;20097;-46
2022/11/29 06:19:33;;;;;;;6.18;1.88;;;28.10;49.20;;;;;;4111462;28;20125;-49
2022/11/29 06:22:23;;;;;;;5.68;2.08;;;28.20;49.10;;;;;;4114795;28;20974;-45
2022/11/29 06:25:15;;;;;;;7.63;1.80;;;28.20;49.00;;;;;;4113291;28;20057;-46
2022/11/29 06:28:03;;;;;;;5.45;1.85;;;28.10;48.90;;;;;;4112986;28;20048;-46
2022/11/29 06:30:39;;;;;;;12.20;2.05;;;28.20;49.00;;;;;;4112785;28;20483;-54
2022/11/29 06:33:28;;;;;;;8.13;1.65;;;28.20;49.00;;;;;;4115385;28;20039;-48
2022/11/29 06:36:13;;;;;;;7.13;1.75;;;28.20;49.00;;;;;;4116907;28;20085;-45
2022/11/29 06:38:36;;;;;;;5.47;1.92;;;28.10;48.70;;;;;;4116222;28;20034;-45
2022/11/29 06:40:59;;;;;;;7.45;2.22;;;28.10;48.50;;;;;;4114590;28;20088;-44
2022/11/29 06:43:24;;;;;;;5.13;1.55;;;28.10;48.40;;;;;;4118901;28;20038;-44
2022/11/29 06:46:00;;;;;;;3.55;1.23;;;28.10;48.30;;;;;;4117049;28;20115;-49
2022/11/29 06:48:33;;;;;;;6.07;1.35;;;28.10;48.10;;;;;;4119357;28;20438;-46
2022/11/29 06:51:25;;;;;;;6.57;1.45;;;28.00;48.20;;;;;;4116229;28;20410;-49
2022/11/29 06:54:18;;;;;;;4.18;1.00;;;28.00;48.30;;;;;;4117045;28;20050;-49
2022/11/29 06:57:03;;;;;;;3.90;1.35;;;28.00;48.40;;;;;;4101487;28;20043;-48
2022/11/29 06:59:42;;;;;;;4.38;1.30;;;28.00;48.50;;;;;;4116584;28;20325;-49
2022/11/29 07:02:34;;;;;;;3.17;1.20;;;28.00;48.50;;;;;;4116128;28;20031;-47
2022/11/29 07:05:26;;;;;;;7.93;1.10;;;28.00;48.50;;;;;;4111567;28;20126;-48
2022/11/29 07:07:52;;;;;;;4.32;1.10;;;27.90;48.50;;;;;;4111903;28;20492;-50
2022/11/29 07:10:17;;;;;;;2.53;0.95;;;27.90;48.60;;;;;;4109333;28;20046;-47
2022/11/29 07:12:40;;;;;;;5.32;1.58;;;27.90;48.60;;;;;;4112522;28;20030;-50
2022/11/29 07:15:03;;;;;;;2.97;1.07;;;27.80;48.80;;;;;;4112736;28;20531;-46
2022/11/29 07:17:49;;;;;;;6.10;1.30;;;27.80;49.00;;;;;;4106670;28;20482;-51
2022/11/29 07:20:30;;;;;;;3.05;1.20;;;27.80;48.90;;;;;;4112604;28;20048;-52
2022/11/29 07:23:10;;;;;;;2.45;1.08;;;27.70;48.90;;;;;;4111617;28;20114;-49
2022/11/29 07:25:57;;;;;;;9.00;1.80;;;27.70;48.70;;;;;;4113197;28;20611;-50
2022/11/29 07:28:22;;;;;;;7.18;1.50;;;27.70;48.60;;;;;;4109180;28;20061;-50
2022/11/29 07:31:01;;;;;;;9.90;1.65;;;27.70;48.70;;;;;;4107705;28;20088;-47
2022/11/29 07:33:36;;;;;;;3.90;1.05;;;27.60;48.80;;;;;;4110012;28;20034;-48
2022/11/29 07:36:15;;;;;;;6.15;0.93;;;27.60;49.10;;;;;;4113075;28;20070;-43
2022/11/29 07:39:03;;;;;;;3.85;1.10;;;27.50;49.10;;;;;;4107481;28;20042;-48
2022/11/29 07:41:42;;;;;;;6.72;1.38;;;27.50;48.40;;;;;;4111835;28;20044;-49
2022/11/29 07:44:12;;;;;;;6.32;1.77;;;27.50;47.60;;;;;;4112595;28;20462;-51
2022/11/29 07:46:35;;;;;;;4.55;1.30;;;27.40;47.40;;;;;;4112090;28;20038;-47
2022/11/29 07:48:57;;;;;;;3.72;1.33;;;27.40;47.30;;;;;;4110846;28;20049;-45
2022/11/29 07:51:20;;;;;;;4.65;1.88;;;27.30;47.00;;;;;;4111176;28;20092;-48
2022/11/29 07:53:44;;;;;;;3.97;1.35;;;27.30;47.00;;;;;;4113713;28;20493;-49
2022/11/29 07:56:08;;;;;;;3.65;1.50;;;27.30;46.70;;;;;;4110580;28;20798;-52
2022/11/29 07:58:31;;;;;;;4.30;1.15;;;27.20;47.00;;;;;;4097295;28;20066;-53
2022/11/29 08:00:53;;;;;;;4.78;1.15;;;27.20;47.40;;;;;;4113438;28;20502;-46
2022/11/29 08:03:16;;;;;;;5.47;1.30;;;27.10;47.90;;;;;;4107867;28;20042;-46
2022/11/29 08:05:39;;;;;;;5.70;1.65;;;27.10;48.60;;;;;;4113468;28;20082;-47
2022/11/29 08:08:02;;;;;;;8.00;1.83;;;27.00;48.60;;;;;;4112200;28;20495;-50
2022/11/29 08:10:25;;;;;;;4.20;1.52;;;27.00;48.70;;;;;;4108259;28;20046;-47
2022/11/29 08:12:50;;;;;;;4.07;1.60;;;27.00;48.80;;;;;;4112327;28;20066;-44
2022/11/29 08:15:13;;;;;;;6.00;1.50;;;27.00;48.80;;;;;;4112587;28;20482;-49
2022/11/29 08:17:37;;;;;;;10.50;1.73;;;26.90;48.70;;;;;;4110840;28;20046;-46
2022/11/29 08:20:00;;;;;;;19.30;2.17;;;27.00;49.30;;;;;;4111691;28;20045;-45
2022/11/29 08:22:22;;;;;;;9.82;2.13;;;26.90;49.30;;;;;;4108861;28;20042;-50
2022/11/29 08:24:45;;;;;;;7.38;1.73;;;26.90;49.30;;;;;;4108033;28;20518;-51
2022/11/29 08:27:07;;;;;;;6.80;1.55;;;26.90;49.40;;;;;;4111141;28;20042;-52
2022/11/29 08:29:30;;;;;;;12.98;2.13;;;26.80;49.20;;;;;;4109430;28;20042;-55
2022/11/29 08:31:53;;;;;;;9.02;1.95;;;26.80;49.30;;;;;;4110035;28;20038;-52
2022/11/29 08:34:16;;;;;;;5.68;1.55;;;26.80;49.50;;;;;;4109895;28;20042;-51
2022/11/29 08:36:38;;;;;;;4.88;1.42;;;26.80;49.70;;;;;;4109584;28;20459;-55
2022/11/29 08:39:04;;;;;;;7.80;1.52;;;26.80;49.80;;;;;;4109896;28;20345;-54
2022/11/29 08:41:26;;;;;;;3.67;1.13;;;26.80;49.90;;;;;;4110116;28;20113;-56
2022/11/29 08:43:49;;;;;;;3.78;1.42;;;26.80;50.00;;;;;;4100894;28;20066;-52
2022/11/29 08:46:11;;;;;;;14.77;2.33;;;26.80;50.20;;;;;;4107566;28;20073;-50
2022/11/29 08:48:35;;;;;;;7.60;1.80;;;26.70;50.30;;;;;;4105773;28;20038;-52
2022/11/29 08:50:58;;;;;;;11.50;2.10;;;26.80;50.50;;;;;;4107915;28;20557;-58
2022/11/29 08:56:02;;;;;;;7.35;1.63;;;26.80;50.70;;;;;;4102710;28;20641;-50
2022/11/29 08:58:25;;;;;;;12.65;2.20;;;26.80;50.90;;;;;;4104299;28;20569;-51
2022/11/29 09:00:47;;;;;;;25.23;2.42;;;26.70;51.10;;;;;;4105169;28;20164;-45
2022/11/29 09:05:56;;;;;;;13.43;2.00;;;26.80;51.40;;;;;;4082712;28;20434;-44
2022/11/29 09:08:19;;;;;;;17.77;2.13;;;26.80;51.50;;;;;;4103608;28;20031;-45
2022/11/29 09:10:43;;;;;;;9.30;1.53;;;26.70;51.70;;;;;;4101892;28;20038;-49
2022/11/29 09:13:07;;;;;;;5.70;1.33;;;26.60;52.00;;;;;;4106816;28;20038;-50
2022/11/29 09:15:29;;;;;;;6.95;1.20;;;26.60;52.20;;;;;;4104843;28;20548;-53
2022/11/29 09:17:52;;;;;;;4.55;1.50;;;26.50;52.20;;;;;;4100712;28;20034;-44
2022/11/29 09:20:14;;;;;;;4.50;1.20;;;26.50;52.30;;;;;;4108127;28;20046;-49
2022/11/29 09:22:37;;;;;;;2.88;0.88;;;26.50;52.30;;;;;;4107767;28;20169;-49
2022/11/29 09:24:59;;;;;;;5.07;1.20;;;26.50;52.30;;;;;;4102097;28;20053;-47
2022/11/29 09:27:22;;;;;;;15.98;1.75;;;26.40;52.20;;;;;;4108375;28;20588;-46
2022/11/29 09:29:45;;;;;;;2.50;0.80;;;26.40;52.20;;;;;;4108370;28;20041;-55
2022/11/29 09:32:07;;;;;;;3.45;0.93;;;26.40;52.40;;;;;;4113124;28;20045;-46
2022/11/29 09:34:30;;;;;;;7.88;1.60;;;26.40;52.60;;;;;;4115651;28;20045;-45
2022/11/29 09:36:52;;;;;;;5.60;1.45;;;26.40;52.70;;;;;;4116928;28;20073;-41
2022/11/29 09:39:15;;;;;;;4.68;1.30;;;26.50;52.20;;;;;;4109785;28;20038;-45
2022/11/29 09:42:11;;;;;;;4.47;0.93;;;26.50;51.60;;;;;;4114326;28;20035;-49
2022/11/29 09:44:44;;;;;;;4.68;1.40;;;26.40;51.90;;;;;;4116017;28;20082;-41
2022/11/29 09:47:19;;;;;;;2.47;1.15;;;26.40;51.80;;;;;;4112668;28;20042;-43
2022/11/29 09:50:15;;;;;;;1.92;0.80;;;26.50;52.00;;;;;;4111635;28;20050;-40
2022/11/29 09:53:00;;;;;;;3.63;1.00;;;26.40;52.00;;;;;;4116013;28;20084;-44
2022/11/29 09:55:28;;;;;;;3.13;1.08;;;26.40;51.80;;;;;;4118320;28;20096;-47
2022/11/29 09:57:54;;;;;;;2.60;0.90;;;26.40;51.90;;;;;;4117138;28;20459;-45
2022/11/29 10:00:19;;;;;;;5.35;0.75;;;26.40;52.00;;;;;;4101884;28;20435;-43
2022/11/29 10:02:52;;;;;;;3.60;1.30;;;26.40;52.00;;;;;;4116410;28;20043;-46
2022/11/29 10:05:20;;;;;;;4.45;1.10;;;26.50;52.10;;;;;;4111649;28;20069;-43
2022/11/29 10:07:51;;;;;;;4.18;1.30;;;26.50;52.10;;;;;;4110086;28;20518;-44
2022/11/29 10:10:22;;;;;;;2.95;0.88;;;26.50;52.10;;;;;;4116830;28;20060;-44
2022/11/29 10:13:10;;;;;;;3.75;0.95;;;26.40;52.10;;;;;;4115483;28;20538;-43
2022/11/29 10:15:42;;;;;;;2.55;1.30;;;26.40;52.10;;;;;;4116032;28;20046;-42
2022/11/29 10:18:15;;;;;;;2.15;0.80;;;26.50;52.20;;;;;;4114026;28;20046;-44
2022/11/29 10:20:40;;;;;;;3.20;1.13;;;26.50;52.10;;;;;;4117243;28;20038;-42
2022/11/29 10:23:09;;;;;;;2.13;1.10;;;26.50;52.10;;;;;;4117420;28;20463;-42
2022/11/29 10:25:51;;;;;;;4.00;1.05;;;26.60;51.90;;;;;;4116236;28;20077;-40
2022/11/29 10:28:17;;;;;;;3.17;0.90;;;26.50;51.80;;;;;;4115660;28;20058;-43
2022/11/29 10:30:41;;;;;;;3.85;0.93;;;26.60;51.90;;;;;;4112832;28;20038;-44
2022/11/29 10:33:33;;;;;;;2.38;0.70;;;26.60;51.80;;;;;;4115223;28;20053;-42
2022/11/29 10:36:03;;;;;;;3.00;1.05;;;26.60;51.80;;;;;;4113355;28;20498;-44
2022/11/29 10:38:26;;;;;;;2.55;0.82;;;26.60;51.70;;;;;;4117313;28;20042;-42
2022/11/29 10:40:57;;;;;;;2.05;0.77;;;26.60;51.60;;;;;;4113349;28;20763;-46
2022/11/29 10:43:20;;;;;;;2.65;0.88;;;26.60;51.60;;;;;;4117237;28;20152;-44
2022/11/29 10:45:49;;;;;;;2.53;0.88;;;26.60;51.50;;;;;;4114764;28;20046;-50
2022/11/29 10:48:16;;;;;;;1.77;0.82;;;26.60;51.50;;;;;;4115405;28;20110;-44
2022/11/29 10:50:43;;;;;;;1.95;0.98;;;26.60;51.40;;;;;;4114767;28;20066;-43
2022/11/29 10:53:26;;;;;;;3.55;0.70;;;26.60;51.30;;;;;;4117543;28;20470;-43
2022/11/29 10:56:23;;;;;;;4.28;1.00;;;26.60;51.30;;;;;;4112216;28;20431;-42
2022/11/29 10:59:25;;;;;;;4.20;1.30;;;26.60;51.20;;;;;;4092341;28;20494;-41
2022/11/29 11:01:48;;;;;;;3.45;0.80;;;26.60;51.20;;;;;;4118206;28;20080;-42
2022/11/29 11:04:30;;;;;;;3.10;1.10;;;26.60;51.10;;;;;;4116436;28;20395;-46
2022/11/29 11:06:55;;;;;;;3.45;1.20;;;26.60;51.00;;;;;;4115909;28;20500;-47
2022/11/29 11:09:24;;;;;;;9.40;1.48;;;26.60;50.80;;;;;;4114305;28;20042;-48
2022/11/29 11:11:55;;;;;;;7.35;1.30;;;26.60;50.90;;;;;;4111624;28;20494;-47
2022/11/29 11:14:30;;;;;;;7.63;1.65;;;26.60;51.00;;;;;;4115320;28;20384;-48
2022/11/29 11:16:53;;;;;;;1.67;0.90;;;26.60;51.10;;;;;;4114085;28;20042;-46
2022/11/29 11:19:29;;;;;;;8.05;1.25;;;26.60;51.10;;;;;;4110489;28;20073;-46
2022/11/29 11:21:51;;;;;;;4.38;1.30;;;26.60;51.00;;;;;;4108568;28;20054;-50
2022/11/29 11:24:26;;;;;;;4.88;1.13;;;26.60;51.10;;;;;;4106162;28;20142;-51
2022/11/29 11:26:48;;;;;;;4.57;1.42;;;26.60;51.00;;;;;;4105751;28;20065;-48
2022/11/29 11:29:36;;;;;;;5.40;1.52;;;26.50;50.80;;;;;;4107914;28;20384;-48
2022/11/29 11:32:00;;;;;;;4.05;1.17;;;26.50;50.90;;;;;;4111864;28;20566;-45
2022/11/29 11:34:36;;;;;;;8.50;1.10;;;26.50;50.80;;;;;;4111134;28;20154;-47
2022/11/29 11:37:21;;;;;;;6.68;1.10;;;26.50;50.70;;;;;;4109163;28;20414;-49
2022/11/29 11:39:45;;;;;;;3.08;0.82;;;26.50;50.60;;;;;;4109823;28;20049;-51
2022/11/29 11:44:55;;;;;;;4.40;1.30;;;26.40;50.50;;;;;;4108587;28;20043;-54
2022/11/29 11:47:26;;;;;;;4.88;0.95;;;26.40;50.50;;;;;;4108712;28;20586;-50
2022/11/29 11:49:53;;;;;;;8.40;1.30;;;26.30;50.30;;;;;;4108039;28;20073;-44
2022/11/29 11:52:25;;;;;;;5.63;1.00;;;26.30;50.40;;;;;;4109584;28;20425;-47
2022/11/29 11:55:04;;;;;;;3.95;1.30;;;26.30;50.40;;;;;;4108851;28;20355;-48
2022/11/29 11:57:28;;;;;;;4.97;0.82;;;26.30;50.40;;;;;;4110314;28;20497;-48
2022/11/29 11:59:52;;;;;;;1.50;0.68;;;26.20;50.30;;;;;;4112912;28;20050;-53
2022/11/29 12:02:40;;;;;;;6.82;0.88;;;26.20;50.20;;;;;;4110831;28;20458;-47
2022/11/29 12:05:16;;;;;;;2.55;1.00;;;26.20;50.30;;;;;;4107609;28;20046;-50
2022/11/29 12:07:57;;;;;;;3.40;1.30;;;26.20;50.20;;;;;;4113709;28;20046;-46
2022/11/29 12:10:26;;;;;;;2.75;1.13;;;26.20;50.50;;;;;;4109871;28;20049;-48
2022/11/29 12:12:50;;;;;;;3.03;1.15;;;26.10;49.80;;;;;;4108040;28;20771;-51
2022/11/29 12:15:21;;;;;;;4.38;1.00;;;26.10;49.80;;;;;;4116731;28;20042;-49
2022/11/29 12:18:05;;;;;;;4.72;1.48;;;26.10;49.90;;;;;;4111821;28;20034;-44
2022/11/29 12:20:53;;;;;;;11.95;1.50;;;26.10;50.00;;;;;;4110868;28;20046;-47
2022/11/29 12:23:31;;;;;;;4.95;1.13;;;26.10;49.90;;;;;;4110137;28;20064;-50
2022/11/29 12:26:05;;;;;;;4.50;1.02;;;26.00;49.80;;;;;;4104797;28;20509;-46
2022/11/29 12:28:33;;;;;;;2.28;1.08;;;26.00;49.70;;;;;;4107832;28;20524;-48
2022/11/29 12:31:20;;;;;;;7.13;1.52;;;26.00;49.70;;;;;;4109005;28;20081;-44
2022/11/29 12:33:55;;;;;;;7.28;1.30;;;26.00;49.70;;;;;;4107074;28;20042;-44
2022/11/29 12:36:26;;;;;;;4.68;1.20;;;26.00;49.70;;;;;;4107173;28;20041;-46
2022/11/29 12:38:58;;;;;;;4.90;1.33;;;26.00;49.80;;;;;;4107730;28;20037;-45
2022/11/29 12:41:41;;;;;;;7.97;1.02;;;25.90;49.80;;;;;;4106775;28;20537;-46
2022/11/29 12:44:36;;;;;;;6.95;1.27;;;25.90;49.80;;;;;;4107586;28;20113;-45
2022/11/29 12:47:20;;;;;;;7.55;1.38;;;25.90;49.90;;;;;;4091289;28;20554;-48
2022/11/29 12:49:53;;;;;;;1.98;1.00;;;25.80;49.90;;;;;;4114089;28;20034;-47
2022/11/29 12:52:15;;;;;;;6.65;1.23;;;25.80;49.80;;;;;;4116077;28;20112;-46
2022/11/29 12:54:38;;;;;;;3.60;1.20;;;25.80;49.80;;;;;;4111946;28;20185;-44
2022/11/29 12:57:24;;;;;;;3.70;1.17;;;25.80;49.80;;;;;;4113677;28;20421;-47
2022/11/29 13:00:04;;;;;;;3.72;1.05;;;25.70;49.70;;;;;;4114417;28;20398;-47
2022/11/29 13:03:03;;;;;;;3.38;0.70;;;25.70;49.60;;;;;;4115600;28;20038;-48
2022/11/29 13:05:50;;;;;;;5.20;1.15;;;25.70;49.70;;;;;;4111548;28;20050;-45
2022/11/29 13:08:16;;;;;;;2.72;0.90;;;25.70;49.60;;;;;;4111027;28;20439;-45
2022/11/29 13:10:58;;;;;;;3.90;1.25;;;25.60;49.60;;;;;;4106312;28;20139;-43
2022/11/29 13:13:41;;;;;;;3.13;0.75;;;25.60;50.00;;;;;;4105102;28;20039;-44
2022/11/29 13:16:27;;;;;;;3.90;1.00;;;25.60;50.10;;;;;;4108187;28;20597;-47
2022/11/29 13:19:14;;;;;;;11.57;1.30;;;25.60;50.00;;;;;;4108263;28;20369;-45
2022/11/29 13:22:00;;;;;;;3.65;1.20;;;25.50;50.70;;;;;;4106225;28;20450;-42
2022/11/29 13:24:38;;;;;;;8.38;1.25;;;25.50;50.80;;;;;;4111616;28;20147;-48
2022/11/29 13:27:06;;;;;;;4.95;1.25;;;25.40;50.70;;;;;;4108526;28;20038;-46
2022/11/29 13:29:29;;;;;;;2.95;1.25;;;25.40;51.00;;;;;;4108235;28;20054;-48
2022/11/29 13:31:52;;;;;;;3.45;1.38;;;25.30;51.10;;;;;;4108851;28;20101;-52